createdAt,value
2019-02-16T00:01:06.792Z,95.20
2019-02-16T00:03:38.414Z,95.10
2019-02-16T00:06:06.978Z,95.10
2019-02-16T00:08:35.522Z,95.10
2019-02-16T00:11:04.105Z,95.20
2019-02-16T00:13:32.666Z,95.20
2019-02-16T00:16:01.321Z,95.20
2019-02-16T00:18:29.941Z,95.20
2019-02-16T00:21:03.967Z,95.20
2019-02-16T00:23:28.799Z,95.20
2019-02-16T00:25:57.349Z,95.20
2019-02-16T00:28:27.630Z,95.20
2019-02-16T00:30:56.192Z,95.10
2019-02-16T00:33:24.772Z,95.10
2019-02-16T00:35:53.321Z,95.20
2019-02-16T00:38:21.803Z,95.20
2019-02-16T00:40:50.320Z,95.20
2019-02-16T00:43:18.871Z,95.30
2019-02-16T00:45:47.412Z,95.30
2019-02-16T00:48:15.995Z,95.30
2019-02-16T00:50:44.562Z,95.30
2019-02-16T00:53:13.190Z,95.40
2019-02-16T00:55:41.862Z,95.40
2019-02-16T00:58:10.429Z,95.40
2019-02-16T01:00:38.992Z,95.40
2019-02-16T01:03:07.532Z,95.50
2019-02-16T01:05:36.047Z,95.40
2019-02-16T01:08:07.470Z,95.40
2019-02-16T01:10:36.114Z,95.80
2019-02-16T01:13:06.780Z,95.50
2019-02-16T01:15:35.318Z,95.50
2019-02-16T01:18:03.973Z,95.50
2019-02-16T01:20:32.538Z,95.50
2019-02-16T01:23:02.619Z,95.60
2019-02-16T01:25:31.174Z,95.50
2019-02-16T01:27:59.720Z,95.60
2019-02-16T01:30:28.294Z,95.60
2019-02-16T01:32:56.840Z,95.60
2019-02-16T01:35:25.383Z,95.60
2019-02-16T01:37:53.885Z,95.60
2019-02-16T01:40:22.447Z,95.70
2019-02-16T01:42:50.978Z,95.70
2019-02-16T01:45:19.546Z,95.80
2019-02-16T01:47:48.977Z,95.80
2019-02-16T01:50:17.548Z,95.80
2019-02-16T01:52:46.021Z,95.80
2019-02-16T01:55:14.565Z,95.90
2019-02-16T01:57:43.989Z,95.90
2019-02-16T02:00:12.550Z,95.90
2019-02-16T02:02:41.107Z,95.70
2019-02-16T02:05:09.741Z,95.60
2019-02-16T02:07:38.527Z,95.50
2019-02-16T02:10:08.825Z,95.60
2019-02-16T02:12:38.405Z,95.80
2019-02-16T02:15:09.370Z,95.80
2019-02-16T02:17:37.929Z,95.80
2019-02-16T02:20:08.540Z,95.80
2019-02-16T02:22:37.177Z,95.70
2019-02-16T02:25:18.299Z,95.60
2019-02-16T02:27:47.152Z,95.50
2019-02-16T02:30:15.685Z,95.50
2019-02-16T02:32:44.270Z,95.70
2019-02-16T02:35:12.832Z,95.80
2019-02-16T02:37:41.401Z,95.90
2019-02-16T02:40:09.957Z,96.00
2019-02-16T02:42:38.576Z,96.00
2019-02-16T02:45:10.196Z,96.00
2019-02-16T02:47:38.761Z,96.10
2019-02-16T02:50:07.893Z,96.10
2019-02-16T02:52:36.456Z,96.10
2019-02-16T02:55:06.659Z,96.10
2019-02-16T02:57:35.239Z,96.20
2019-02-16T03:00:05.581Z,96.20
2019-02-16T03:02:34.170Z,96.20
2019-02-16T03:05:07.089Z,96.20
2019-02-16T03:07:37.272Z,96.20
2019-02-16T03:10:06.837Z,96.30
2019-02-16T03:12:38.086Z,96.30
2019-02-16T03:15:07.411Z,96.30
2019-02-16T03:17:35.980Z,96.40
2019-02-16T03:20:07.815Z,96.30
2019-02-16T03:23:04.689Z,96.30
2019-02-16T03:25:33.262Z,96.30
2019-02-16T03:28:24.590Z,96.30
2019-02-16T03:31:10.820Z,96.40
2019-02-16T03:33:42.472Z,96.30
2019-02-16T03:36:25.823Z,96.30
2019-02-16T03:38:57.807Z,96.40
2019-02-16T03:41:26.354Z,96.40
2019-02-16T03:43:56.140Z,96.40
2019-02-16T03:46:24.694Z,96.40
2019-02-16T03:48:53.272Z,96.40
2019-02-16T03:51:21.789Z,96.50
2019-02-16T03:53:50.331Z,96.50
2019-02-16T03:56:18.921Z,96.50
2019-02-16T03:58:47.394Z,96.50
2019-02-16T04:01:15.970Z,96.50
2019-02-16T04:03:44.677Z,96.50
2019-02-16T04:06:13.243Z,96.50
2019-02-16T04:08:41.925Z,96.50
2019-02-16T04:11:10.502Z,96.50
2019-02-16T04:13:39.046Z,96.50
2019-02-16T04:16:07.616Z,96.40
2019-02-16T04:18:36.183Z,96.40
2019-02-16T04:21:04.763Z,96.40
2019-02-16T04:23:33.308Z,96.50
2019-02-16T04:26:03.492Z,96.40
2019-02-16T04:28:32.085Z,96.40
2019-02-16T04:31:00.635Z,96.50
2019-02-16T04:33:29.225Z,96.50
2019-02-16T04:35:57.766Z,96.50
2019-02-16T04:38:29.262Z,96.40
2019-02-16T04:40:57.838Z,96.40
2019-02-16T04:43:29.292Z,96.40
2019-02-16T04:46:02.086Z,96.40
2019-02-16T04:48:30.656Z,96.40
2019-02-16T04:50:59.261Z,96.50
2019-02-16T04:53:27.831Z,96.40
2019-02-16T04:55:59.119Z,96.40
2019-02-16T04:58:27.684Z,96.50
2019-02-16T05:00:56.233Z,96.40
2019-02-16T05:03:24.810Z,96.40
2019-02-16T05:06:08.392Z,96.40
2019-02-16T05:08:56.756Z,96.40
2019-02-16T05:11:27.976Z,96.40
2019-02-16T05:14:06.886Z,96.40
2019-02-16T05:16:35.793Z,96.50
2019-02-16T05:19:04.334Z,96.50
2019-02-16T05:21:32.889Z,96.60
2019-02-16T05:24:01.456Z,96.60
2019-02-16T05:26:30.006Z,96.50
2019-02-16T05:28:58.851Z,96.60
2019-02-16T05:31:30.694Z,96.60
2019-02-16T05:33:59.473Z,96.70
2019-02-16T05:36:32.460Z,96.70
2019-02-16T05:39:01.029Z,96.70
2019-02-16T05:41:29.610Z,96.70
2019-02-16T05:44:03.855Z,96.70
2019-02-16T05:46:32.441Z,96.80
2019-02-16T05:49:00.980Z,96.80
2019-02-16T05:51:32.480Z,96.80
2019-02-16T05:54:01.038Z,96.80
2019-02-16T05:56:31.183Z,96.70
2019-02-16T05:59:00.666Z,96.70
2019-02-16T06:01:30.754Z,96.60
2019-02-16T06:04:06.586Z,96.70
2019-02-16T06:06:35.173Z,96.70
2019-02-16T06:09:04.849Z,96.70
2019-02-16T06:11:33.332Z,96.60
2019-02-16T06:14:01.892Z,96.60
2019-02-16T06:16:31.253Z,96.50
2019-02-16T06:18:59.801Z,96.50
2019-02-16T06:21:30.998Z,96.50
2019-02-16T06:23:59.559Z,96.50
2019-02-16T06:26:28.151Z,96.50
2019-02-16T06:28:56.695Z,96.50
2019-02-16T06:31:25.246Z,96.50
2019-02-16T06:33:54.477Z,96.50
2019-02-16T06:36:25.935Z,96.60
2019-02-16T06:38:56.045Z,96.60
2019-02-16T06:41:27.364Z,96.70
2019-02-16T06:43:55.936Z,96.60
2019-02-16T06:46:24.475Z,96.70
2019-02-16T06:48:53.125Z,96.70
2019-02-16T06:51:21.669Z,96.70
2019-02-16T06:53:53.169Z,96.70
2019-02-16T06:56:23.362Z,96.70
2019-02-16T06:58:55.152Z,96.80
2019-02-16T07:01:23.730Z,96.80
2019-02-16T07:03:52.268Z,96.80
2019-02-16T07:06:20.849Z,96.80
2019-02-16T07:08:50.361Z,96.80
2019-02-16T07:11:18.919Z,96.80
2019-02-16T07:13:47.493Z,96.80
2019-02-16T07:16:23.430Z,96.80
2019-02-16T07:18:53.645Z,96.80
2019-02-16T07:21:22.127Z,96.80
2019-02-16T07:23:50.699Z,96.80
2019-02-16T07:26:19.350Z,96.80
2019-02-16T07:28:47.935Z,96.80
2019-02-16T07:31:16.485Z,96.80
2019-02-16T07:33:45.031Z,96.80
2019-02-16T07:36:14.371Z,96.80
2019-02-16T07:38:42.919Z,96.70
2019-02-16T07:41:11.495Z,96.80
2019-02-16T07:43:51.024Z,96.70
2019-02-16T07:46:21.245Z,96.70
2019-02-16T07:48:51.357Z,96.70
2019-02-16T07:51:23.946Z,96.70
2019-02-16T07:53:54.228Z,96.80
2019-02-16T07:56:24.684Z,96.80
2019-02-16T07:58:54.886Z,96.90
2019-02-16T08:01:33.741Z,96.90
2019-02-16T08:04:07.965Z,96.90
2019-02-16T08:06:53.440Z,97.00
2019-02-16T08:09:26.452Z,97.10
2019-02-16T08:12:10.223Z,97.10
2019-02-16T08:14:45.866Z,97.20
2019-02-16T08:17:27.665Z,97.30
2019-02-16T08:20:06.593Z,97.50
2019-02-16T08:22:52.894Z,97.50
2019-02-16T08:25:29.131Z,97.70
2019-02-16T08:27:59.410Z,97.70
2019-02-16T08:30:38.503Z,97.50
2019-02-16T08:33:23.529Z,97.50
2019-02-16T08:35:53.820Z,97.40
2019-02-16T08:38:30.526Z,97.40
2019-02-16T08:41:17.282Z,97.30
2019-02-16T08:43:47.549Z,97.30
2019-02-16T08:46:24.769Z,97.30
2019-02-16T08:49:00.791Z,97.30
2019-02-16T08:51:36.112Z,97.80
2019-02-16T08:54:15.113Z,97.40
2019-02-16T08:56:53.914Z,97.40
2019-02-16T08:59:30.261Z,97.30
2019-02-16T09:02:15.273Z,97.20
2019-02-16T09:04:45.509Z,97.30
2019-02-16T09:07:30.466Z,97.30
2019-02-16T09:10:03.661Z,97.30
2019-02-16T09:12:33.894Z,97.20
2019-02-16T09:15:25.153Z,97.30
2019-02-16T09:17:58.128Z,97.20
2019-02-16T09:20:48.889Z,97.30
2019-02-16T09:23:21.767Z,97.10
2019-02-16T09:26:02.229Z,97.20
2019-02-16T09:28:39.637Z,97.10
2019-02-16T09:31:12.924Z,97.10
2019-02-16T09:33:43.120Z,97.20
2019-02-16T09:36:15.211Z,97.10
2019-02-16T09:38:50.194Z,97.00
2019-02-16T09:41:28.020Z,97.00
2019-02-16T09:44:10.386Z,97.00
2019-02-16T09:46:44.832Z,97.10
2019-02-16T09:49:23.996Z,97.10
2019-02-16T09:51:57.168Z,97.10
2019-02-16T09:54:39.083Z,97.20
2019-02-16T09:57:12.770Z,97.20
2019-02-16T09:59:58.168Z,97.20
2019-02-16T10:02:33.770Z,97.10
2019-02-16T10:05:26.207Z,97.20
2019-02-16T10:10:55.340Z,96.90
2019-02-16T10:13:26.380Z,97.00
2019-02-16T10:16:03.813Z,96.90
2019-02-16T10:18:51.468Z,96.80
2019-02-16T10:21:24.168Z,96.80
2019-02-16T10:24:18.018Z,96.60
2019-02-16T10:26:59.886Z,96.90
2019-02-16T10:29:46.134Z,96.80
2019-02-16T10:32:24.719Z,96.80
2019-02-16T10:35:06.493Z,96.70
2019-02-16T10:37:48.635Z,96.90
2019-02-16T10:40:24.373Z,96.70
2019-02-16T10:42:57.294Z,96.40
2019-02-16T10:45:27.493Z,96.80
2019-02-16T10:48:03.809Z,96.10
2019-02-16T10:50:36.786Z,96.30
2019-02-16T10:53:07.052Z,96.50
2019-02-16T10:55:40.005Z,96.80
2019-02-16T10:58:10.552Z,96.50
2019-02-16T11:00:49.656Z,96.30
2019-02-16T11:03:22.683Z,96.40
2019-02-16T11:05:56.387Z,96.70
2019-02-16T11:08:32.500Z,96.20
2019-02-16T11:11:05.471Z,96.20
2019-02-16T11:13:40.031Z,96.10
2019-02-16T11:16:32.640Z,96.50
2019-02-16T11:19:14.895Z,96.10
2019-02-16T11:21:51.833Z,96.00
2019-02-16T11:24:36.152Z,95.90
2019-02-16T11:27:18.031Z,96.80
2019-02-16T11:29:51.282Z,96.50
2019-02-16T11:32:21.961Z,96.20
2019-02-16T11:34:52.140Z,96.00
2019-02-16T11:37:34.203Z,96.30
2019-02-16T11:40:19.178Z,96.00
2019-02-16T11:43:07.327Z,96.10
2019-02-16T11:45:40.159Z,96.00
2019-02-16T11:48:13.084Z,96.40
2019-02-16T11:50:46.352Z,96.20
2019-02-16T11:53:34.835Z,96.50
2019-02-16T11:56:11.617Z,96.00
2019-02-16T11:58:47.507Z,95.70
2019-02-16T12:01:26.870Z,95.50
2019-02-16T12:04:02.947Z,96.00
2019-02-16T12:06:35.699Z,95.30
2019-02-16T12:09:10.291Z,95.30
2019-02-16T12:11:40.535Z,95.10
2019-02-16T12:14:17.835Z,95.20
2019-02-16T12:17:09.142Z,95.60
2019-02-16T12:19:59.354Z,95.40
2019-02-16T12:22:47.878Z,95.10
2019-02-16T12:25:20.785Z,95.50
2019-02-16T12:27:51.001Z,95.40
2019-02-16T12:30:26.839Z,95.40
2019-02-16T12:32:57.045Z,95.20
2019-02-16T12:35:36.295Z,95.10
2019-02-16T12:38:21.349Z,94.70
2019-02-16T12:40:54.513Z,94.90
2019-02-16T12:43:40.977Z,95.10
2019-02-16T12:46:18.107Z,94.20
2019-02-16T12:49:07.672Z,94.60
2019-02-16T12:51:46.762Z,95.00
2019-02-16T12:54:22.730Z,94.80
2019-02-16T12:56:55.931Z,92.80
2019-02-16T12:59:28.565Z,92.50
2019-02-16T13:02:04.259Z,91.60
2019-02-16T13:04:49.331Z,92.30
2019-02-16T13:07:25.281Z,93.00
2019-02-16T13:10:07.622Z,93.10
2019-02-16T13:12:49.617Z,92.70
2019-02-16T13:15:31.602Z,92.10
2019-02-16T13:18:04.759Z,93.00
2019-02-16T13:20:37.785Z,93.40
2019-02-16T13:23:13.458Z,92.40
2019-02-16T13:25:43.662Z,91.00
2019-02-16T13:28:17.160Z,92.20
2019-02-16T13:30:47.374Z,91.80
2019-02-16T13:33:17.672Z,90.90
2019-02-16T13:35:50.845Z,91.50
2019-02-16T13:38:23.933Z,92.00
2019-02-16T13:40:57.096Z,91.30
2019-02-16T13:43:27.983Z,90.40
2019-02-16T13:46:04.180Z,90.20
2019-02-16T13:48:34.446Z,90.70
2019-02-16T13:51:05.616Z,90.50
2019-02-16T13:53:44.411Z,87.80
2019-02-16T13:56:20.547Z,89.30
2019-02-16T13:59:00.760Z,90.50
2019-02-16T14:01:34.567Z,88.00
2019-02-16T14:04:10.353Z,90.00
2019-02-16T14:06:40.558Z,90.10
2019-02-16T14:09:10.831Z,89.50
2019-02-16T14:11:42.598Z,89.10
2019-02-16T14:14:24.739Z,87.10
2019-02-16T14:16:54.969Z,85.70
2019-02-16T14:19:25.678Z,85.40
2019-02-16T14:21:54.693Z,84.40
2019-02-16T14:24:39.680Z,85.70
2019-02-16T14:27:14.490Z,83.10
2019-02-16T14:29:44.599Z,81.50
2019-02-16T14:32:14.237Z,79.40
2019-02-16T14:34:45.451Z,78.90
2019-02-16T14:37:15.699Z,78.60
2019-02-16T14:39:44.560Z,77.20
2019-02-16T14:42:13.116Z,76.40
2019-02-16T14:44:42.491Z,78.70
2019-02-16T14:47:11.802Z,77.80
2019-02-16T14:49:40.369Z,77.20
2019-02-16T14:52:10.485Z,79.10
2019-02-16T14:54:39.024Z,77.70
2019-02-16T14:57:17.381Z,79.20
2019-02-16T14:59:46.570Z,77.20
2019-02-16T15:02:15.123Z,77.60
2019-02-16T15:04:43.698Z,75.80
2019-02-16T15:07:12.246Z,78.00
2019-02-16T15:09:40.796Z,73.90
2019-02-16T15:12:10.148Z,75.30
2019-02-16T15:14:38.764Z,72.30
2019-02-16T15:17:10.011Z,71.20
2019-02-16T15:19:50.527Z,70.80
2019-02-16T15:22:22.064Z,70.20
2019-02-16T15:24:53.720Z,69.90
2019-02-16T15:27:22.302Z,68.70
2019-02-16T15:29:50.862Z,69.00
2019-02-16T15:32:23.770Z,68.60
2019-02-16T15:34:52.382Z,67.80
2019-02-16T15:37:22.473Z,67.50
2019-02-16T15:39:51.108Z,66.90
2019-02-16T15:42:19.697Z,66.70
2019-02-16T15:44:48.258Z,66.20
2019-02-16T15:47:17.628Z,66.10
2019-02-16T15:49:48.999Z,65.20
2019-02-16T15:52:20.327Z,64.90
2019-02-16T15:54:48.892Z,64.50
2019-02-16T15:57:17.589Z,64.90
2019-02-16T15:59:46.172Z,63.40
2019-02-16T16:02:14.802Z,63.20
2019-02-16T16:04:43.393Z,63.10
2019-02-16T16:07:13.583Z,62.90
2019-02-16T16:09:54.436Z,62.10
2019-02-16T16:12:42.542Z,62.60
2019-02-16T16:15:28.688Z,62.40
2019-02-16T16:18:16.265Z,62.10
2019-02-16T16:20:52.786Z,62.00
2019-02-16T16:23:28.209Z,62.50
2019-02-16T16:26:08.289Z,62.80
2019-02-16T16:28:41.289Z,63.60
2019-02-16T16:31:11.690Z,63.50
2019-02-16T16:33:51.958Z,64.00
2019-02-16T16:36:22.344Z,64.40
2019-02-16T16:38:52.505Z,65.50
2019-02-16T16:41:38.874Z,66.10
2019-02-16T16:44:11.489Z,66.50
2019-02-16T16:46:44.666Z,68.00
2019-02-16T16:49:21.171Z,69.30
2019-02-16T16:51:53.843Z,73.80
2019-02-16T16:54:26.984Z,75.60
2019-02-16T16:57:00.211Z,74.40
2019-02-16T16:59:36.211Z,77.30
2019-02-16T17:02:06.982Z,78.10
2019-02-16T17:04:54.982Z,80.00
2019-02-16T17:07:39.188Z,81.00
2019-02-16T17:10:24.894Z,80.90
2019-02-16T17:12:55.161Z,81.50
2019-02-16T17:15:37.318Z,82.50
2019-02-16T17:18:10.530Z,83.30
2019-02-16T17:20:43.557Z,83.60
2019-02-16T17:23:24.099Z,83.90
2019-02-16T17:25:56.764Z,84.30
2019-02-16T17:28:43.226Z,81.80
2019-02-16T17:31:13.469Z,81.10
2019-02-16T17:33:49.453Z,82.50
2019-02-16T17:36:37.566Z,84.90
2019-02-16T17:39:11.036Z,85.40
2019-02-16T17:41:56.293Z,85.80
2019-02-16T17:44:29.050Z,86.60
2019-02-16T17:47:10.511Z,87.40
2019-02-16T17:49:43.577Z,87.60
2019-02-16T17:52:18.569Z,88.20
2019-02-16T17:54:48.388Z,88.90
2019-02-16T17:57:18.701Z,89.50
2019-02-16T17:59:58.134Z,90.10
2019-02-16T18:02:31.001Z,90.40
2019-02-16T18:05:07.188Z,90.60
2019-02-16T18:07:45.312Z,90.90
2019-02-16T18:10:22.336Z,91.10
2019-02-16T18:12:54.994Z,91.30
2019-02-16T18:15:35.749Z,91.40
2019-02-16T18:18:15.720Z,91.70
2019-02-16T18:20:49.395Z,91.80
2019-02-16T18:23:19.581Z,92.10
2019-02-16T18:25:52.395Z,92.20
2019-02-16T18:28:41.772Z,92.70
2019-02-16T18:31:11.959Z,92.50
2019-02-16T18:33:48.075Z,92.70
2019-02-16T18:36:28.783Z,92.90
2019-02-16T18:39:11.983Z,92.90
2019-02-16T18:41:57.897Z,92.90
2019-02-16T18:44:44.302Z,93.00
2019-02-16T18:47:14.463Z,93.10
2019-02-16T18:49:48.148Z,93.30
2019-02-16T18:52:18.336Z,93.30
2019-02-16T18:54:48.916Z,93.40
2019-02-16T18:57:19.195Z,93.50
2019-02-16T19:00:09.107Z,93.60
2019-02-16T19:02:59.110Z,93.60
2019-02-16T19:05:33.017Z,93.60
2019-02-16T19:08:06.079Z,93.70
2019-02-16T19:10:42.049Z,93.80
2019-02-16T19:13:28.260Z,93.90
2019-02-16T19:16:01.334Z,94.10
2019-02-16T19:18:37.390Z,94.00
2019-02-16T19:21:10.202Z,94.10
2019-02-16T19:23:40.429Z,94.20
2019-02-16T19:26:10.666Z,94.20
2019-02-16T19:28:40.859Z,94.30
2019-02-16T19:31:13.497Z,94.40
2019-02-16T19:33:55.413Z,94.50
2019-02-16T19:36:25.935Z,94.50
2019-02-16T19:38:56.132Z,94.70
2019-02-16T19:41:35.868Z,94.80
2019-02-16T19:44:06.151Z,94.90
2019-02-16T19:46:39.040Z,95.00
2019-02-16T19:49:18.871Z,95.10
2019-02-16T19:51:53.770Z,95.20
2019-02-16T19:54:44.216Z,95.30
2019-02-16T19:57:26.683Z,95.30
2019-02-16T19:59:51.549Z,95.40
2019-02-16T20:02:24.855Z,95.50
2019-02-16T20:05:01.114Z,95.50
2019-02-16T20:07:49.144Z,95.60
2019-02-16T20:10:20.395Z,95.70
2019-02-16T20:13:02.269Z,95.70
2019-02-16T20:15:47.619Z,95.70
2019-02-16T20:18:17.836Z,95.90
2019-02-16T20:20:50.729Z,95.90
2019-02-16T20:23:23.684Z,95.90
2019-02-16T20:25:55.510Z,95.90
2019-02-16T20:28:41.699Z,96.00
2019-02-16T20:31:46.399Z,96.00
2019-02-16T20:34:28.553Z,96.00
2019-02-16T20:36:58.814Z,96.00
2019-02-16T20:39:28.988Z,96.00
2019-02-16T20:42:05.148Z,96.00
2019-02-16T20:44:38.293Z,96.10
2019-02-16T20:47:17.370Z,96.00
2019-02-16T20:49:48.539Z,96.10
2019-02-16T20:52:18.732Z,96.20
2019-02-16T20:54:54.768Z,96.10
2019-02-16T20:57:47.307Z,96.10
2019-02-16T21:00:16.847Z,96.10
2019-02-16T21:02:56.247Z,96.20
2019-02-16T21:05:29.570Z,96.20
2019-02-16T21:08:17.595Z,96.20
2019-02-16T21:10:47.996Z,96.30
2019-02-16T21:13:33.164Z,96.30
2019-02-16T21:16:11.507Z,96.30
2019-02-16T21:18:42.637Z,96.30
2019-02-16T21:21:27.647Z,96.40
2019-02-16T21:24:03.829Z,96.40
2019-02-16T21:26:37.163Z,96.80
2019-02-16T21:29:26.825Z,96.50
2019-02-16T21:32:17.103Z,96.50
2019-02-16T21:34:53.254Z,96.40
2019-02-16T21:37:43.031Z,96.40
2019-02-16T21:40:27.801Z,96.40
2019-02-16T21:42:58.006Z,96.40
2019-02-16T21:45:28.140Z,96.50
2019-02-16T21:48:01.290Z,96.50
2019-02-16T21:50:49.826Z,96.50
2019-02-16T21:53:21.740Z,96.60
2019-02-16T21:55:51.352Z,96.60
2019-02-16T21:58:21.562Z,96.60
2019-02-16T22:01:02.740Z,96.60
2019-02-16T22:03:33.325Z,96.70
2019-02-16T22:06:20.166Z,96.60
2019-02-16T22:09:20.466Z,96.70
2019-02-16T22:11:53.135Z,96.60
2019-02-16T22:14:21.688Z,96.80
2019-02-16T22:16:50.300Z,96.80
2019-02-16T22:19:18.881Z,96.80
2019-02-16T22:21:47.456Z,96.80
2019-02-16T22:24:16.103Z,96.90
2019-02-16T22:26:52.975Z,96.90
2019-02-16T22:29:21.556Z,96.90
2019-02-16T22:31:51.763Z,96.90
2019-02-16T22:34:28.532Z,96.90
2019-02-16T22:36:57.103Z,97.00
2019-02-16T22:39:28.028Z,97.00
2019-02-16T22:41:56.612Z,97.00
2019-02-16T22:44:34.083Z,97.00
2019-02-16T22:47:02.530Z,97.00
2019-02-16T22:49:31.112Z,97.00
2019-02-16T22:52:06.862Z,97.00
2019-02-16T22:54:35.414Z,97.00
2019-02-16T22:57:04.024Z,97.00
2019-02-16T22:59:32.633Z,97.00
2019-02-16T23:02:01.284Z,97.00
2019-02-16T23:04:29.919Z,97.10
2019-02-16T23:06:58.529Z,97.10
2019-02-16T23:09:27.642Z,97.10
2019-02-16T23:12:01.372Z,97.10
2019-02-16T23:14:30.353Z,97.10
2019-02-16T23:16:59.000Z,97.10
2019-02-16T23:19:27.585Z,97.10
2019-02-16T23:21:57.099Z,97.10
2019-02-16T23:24:27.227Z,97.10
2019-02-16T23:26:57.488Z,97.10
2019-02-16T23:29:27.705Z,97.20
2019-02-16T23:31:56.343Z,97.20
2019-02-16T23:34:24.878Z,97.20
2019-02-16T23:36:53.455Z,97.20
2019-02-16T23:39:22.005Z,97.20
2019-02-16T23:41:50.550Z,97.20
2019-02-16T23:44:19.181Z,97.20
2019-02-16T23:46:51.491Z,97.20
2019-02-16T23:49:19.494Z,97.30
2019-02-16T23:51:50.750Z,97.30
2019-02-16T23:54:20.869Z,97.30
2019-02-16T23:56:49.425Z,97.30
2019-02-16T23:59:34.366Z,97.30
